createdAt,value
2017-08-29T00:00:36.661Z,6.40
2017-08-29T00:03:04.964Z,7.83
2017-08-29T00:05:33.339Z,7.30
2017-08-29T00:08:02.022Z,7.73
2017-08-29T00:10:30.358Z,7.23
2017-08-29T00:12:58.657Z,6.67
2017-08-29T00:15:27.652Z,6.17
2017-08-29T00:17:55.980Z,7.30
2017-08-29T00:20:24.335Z,6.50
2017-08-29T00:22:52.851Z,6.17
2017-08-29T00:25:21.185Z,7.60
2017-08-29T00:27:49.512Z,6.00
2017-08-29T00:30:18.021Z,6.80
2017-08-29T00:32:46.342Z,7.17
2017-08-29T00:35:15.420Z,6.50
2017-08-29T00:37:44.745Z,6.43
2017-08-29T00:40:13.077Z,6.50
2017-08-29T00:42:41.429Z,5.60
2017-08-29T00:45:10.135Z,5.90
2017-08-29T00:47:38.503Z,6.53
2017-08-29T00:50:06.848Z,6.57
2017-08-29T00:52:35.446Z,6.50
2017-08-29T00:55:03.782Z,5.90
2017-08-29T00:57:32.122Z,5.83
2017-08-29T01:00:00.696Z,6.30
2017-08-29T01:02:29.029Z,5.57
2017-08-29T01:04:57.629Z,6.70
2017-08-29T01:07:27.156Z,5.47
2017-08-29T01:09:55.502Z,5.50
2017-08-29T01:12:23.887Z,5.50
2017-08-29T01:14:52.769Z,4.93
2017-08-29T01:17:21.134Z,6.97
2017-08-29T01:19:49.498Z,4.80
2017-08-29T01:22:17.918Z,6.73
2017-08-29T01:24:47.012Z,5.90
2017-08-29T01:27:15.372Z,6.97
2017-08-29T01:29:44.162Z,4.70
2017-08-29T01:32:12.517Z,6.30
2017-08-29T01:34:40.870Z,5.20
2017-08-29T01:37:09.656Z,5.97
2017-08-29T01:39:38.173Z,5.80
2017-08-29T01:42:06.581Z,4.70
2017-08-29T01:44:35.158Z,5.27
2017-08-29T01:47:03.586Z,4.20
2017-08-29T01:49:31.950Z,4.57
2017-08-29T01:52:01.257Z,5.20
2017-08-29T01:54:29.625Z,4.47
2017-08-29T01:56:58.015Z,5.50
2017-08-29T01:59:26.833Z,5.00
2017-08-29T02:01:55.190Z,4.70
2017-08-29T02:04:23.611Z,4.13
2017-08-29T02:06:53.431Z,4.30
2017-08-29T02:09:22.157Z,4.90
2017-08-29T02:11:50.544Z,4.23
2017-08-29T02:14:19.304Z,4.20
2017-08-29T02:16:47.660Z,3.23
2017-08-29T02:19:15.998Z,4.90
2017-08-29T02:21:44.510Z,4.50
2017-08-29T02:24:12.820Z,3.70
2017-08-29T02:26:41.495Z,4.13
2017-08-29T02:29:10.157Z,4.57
2017-08-29T02:31:38.471Z,4.43
2017-08-29T02:34:06.790Z,4.20
2017-08-29T02:36:35.509Z,5.40
2017-08-29T02:39:03.890Z,4.50
2017-08-29T02:41:32.192Z,4.20
2017-08-29T02:44:00.799Z,4.30
2017-08-29T02:46:30.148Z,4.03
2017-08-29T02:48:58.485Z,4.43
2017-08-29T02:51:26.863Z,4.10
2017-08-29T02:53:55.177Z,4.70
2017-08-29T02:56:23.514Z,3.87
2017-08-29T02:58:52.650Z,3.90
2017-08-29T03:01:21.201Z,4.30
2017-08-29T03:03:49.578Z,3.83
2017-08-29T03:06:18.195Z,3.90
2017-08-29T03:08:46.551Z,4.33
2017-08-29T03:11:14.905Z,3.90
2017-08-29T03:13:43.617Z,4.27
2017-08-29T03:16:11.942Z,3.93
2017-08-29T03:18:40.301Z,4.33
2017-08-29T03:21:08.893Z,3.80
2017-08-29T03:23:37.209Z,4.17
2017-08-29T03:26:05.514Z,4.67
2017-08-29T03:28:33.912Z,4.40
2017-08-29T03:31:02.239Z,3.67
2017-08-29T03:33:30.589Z,4.03
2017-08-29T03:35:59.166Z,3.90
2017-08-29T03:38:27.526Z,4.60
2017-08-29T03:40:55.886Z,3.37
2017-08-29T03:43:24.597Z,4.00
2017-08-29T03:45:53.945Z,3.20
2017-08-29T03:48:22.325Z,3.83
2017-08-29T03:50:52.449Z,3.93
2017-08-29T03:53:20.903Z,4.00
2017-08-29T03:55:49.225Z,4.77
2017-08-29T03:58:17.725Z,3.83
2017-08-29T04:00:46.605Z,3.70
2017-08-29T04:03:14.929Z,4.50
2017-08-29T04:05:43.269Z,4.30
2017-08-29T04:08:11.566Z,3.90
2017-08-29T04:10:39.911Z,4.87
2017-08-29T04:13:08.757Z,4.07
2017-08-29T04:15:37.081Z,3.77
2017-08-29T04:18:05.410Z,5.20
2017-08-29T04:20:34.128Z,4.23
2017-08-29T04:23:02.473Z,4.00
2017-08-29T04:25:30.882Z,4.20
2017-08-29T04:27:59.648Z,3.87
2017-08-29T04:30:28.023Z,4.43
2017-08-29T04:32:56.353Z,4.03
2017-08-29T04:35:24.780Z,5.03
2017-08-29T04:37:53.171Z,4.07
2017-08-29T04:40:21.640Z,4.60
2017-08-29T04:42:50.227Z,3.60
2017-08-29T04:45:18.617Z,4.07
2017-08-29T04:47:46.940Z,3.37
2017-08-29T04:50:15.422Z,4.33
2017-08-29T04:52:43.756Z,3.93
2017-08-29T04:55:12.112Z,3.43
2017-08-29T04:57:40.546Z,4.20
2017-08-29T05:00:08.915Z,3.20
2017-08-29T05:02:37.291Z,3.90
2017-08-29T05:05:05.877Z,4.40
2017-08-29T05:07:34.235Z,3.80
2017-08-29T05:10:02.576Z,4.90
2017-08-29T05:12:30.923Z,4.00
2017-08-29T05:14:59.402Z,4.70
2017-08-29T05:17:27.738Z,3.63
2017-08-29T05:19:56.507Z,4.50
2017-08-29T05:22:24.892Z,3.30
2017-08-29T05:24:53.245Z,4.47
2017-08-29T05:27:21.927Z,3.73
2017-08-29T05:29:50.246Z,3.40
2017-08-29T05:32:18.757Z,3.63
2017-08-29T05:34:47.433Z,3.30
2017-08-29T05:37:15.794Z,3.83
2017-08-29T05:39:44.122Z,3.63
2017-08-29T05:42:12.657Z,3.70
2017-08-29T05:44:41.004Z,3.07
2017-08-29T05:47:09.342Z,3.57
2017-08-29T05:49:37.991Z,5.90
2017-08-29T05:52:06.323Z,4.17
2017-08-29T05:54:34.632Z,3.97
2017-08-29T05:57:03.149Z,4.30
2017-08-29T05:59:31.525Z,4.00
2017-08-29T06:01:59.853Z,3.60
2017-08-29T06:04:28.754Z,3.43
2017-08-29T06:06:57.268Z,3.20
2017-08-29T06:09:25.601Z,3.77
2017-08-29T06:11:55.227Z,2.70
2017-08-29T06:14:23.708Z,3.60
2017-08-29T06:16:52.258Z,3.27
2017-08-29T06:19:20.897Z,4.17
2017-08-29T06:21:49.309Z,3.67
2017-08-29T06:24:17.645Z,3.10
2017-08-29T06:26:46.162Z,3.30
2017-08-29T06:29:14.549Z,3.00
2017-08-29T06:31:42.878Z,2.40
2017-08-29T06:34:11.528Z,2.77
2017-08-29T06:36:39.839Z,2.97
2017-08-29T06:39:08.167Z,2.60
2017-08-29T06:41:40.291Z,2.87
2017-08-29T06:44:09.489Z,2.93
2017-08-29T06:46:37.832Z,2.50
2017-08-29T06:49:06.240Z,3.00
2017-08-29T06:51:34.573Z,3.60
2017-08-29T06:54:02.976Z,3.10
2017-08-29T06:56:31.533Z,2.30
2017-08-29T06:59:00.034Z,2.77
2017-08-29T07:01:28.342Z,3.57
2017-08-29T07:03:56.987Z,4.67
2017-08-29T07:06:25.388Z,2.77
2017-08-29T07:08:53.759Z,3.00
2017-08-29T07:11:22.595Z,3.30
2017-08-29T07:13:51.057Z,5.00
2017-08-29T07:16:19.429Z,3.83
2017-08-29T07:18:48.319Z,3.47
2017-08-29T07:21:16.649Z,3.50
2017-08-29T07:23:45.021Z,3.03
2017-08-29T07:26:13.770Z,3.40
2017-08-29T07:28:42.090Z,3.40
2017-08-29T07:31:10.421Z,6.63
2017-08-29T07:33:41.650Z,2.90
2017-08-29T07:36:11.969Z,3.80
2017-08-29T07:38:40.313Z,2.60
2017-08-29T07:41:08.694Z,3.90
2017-08-29T07:43:37.050Z,4.10
2017-08-29T07:46:05.383Z,3.00
2017-08-29T07:48:34.574Z,3.07
2017-08-29T07:51:02.885Z,3.13
2017-08-29T07:53:31.265Z,4.23
2017-08-29T07:55:59.897Z,3.10
2017-08-29T07:58:29.014Z,2.73
2017-08-29T08:00:57.349Z,2.93
2017-08-29T08:03:25.873Z,3.30
2017-08-29T08:05:54.221Z,3.80
2017-08-29T08:08:22.566Z,3.33
2017-08-29T08:10:51.185Z,3.50
2017-08-29T08:13:21.306Z,3.63
2017-08-29T08:15:50.548Z,3.77
2017-08-29T08:18:19.047Z,3.37
2017-08-29T08:20:47.345Z,4.30
2017-08-29T08:23:15.689Z,3.50
2017-08-29T08:25:44.059Z,4.53
2017-08-29T08:28:12.381Z,3.20
2017-08-29T08:30:40.710Z,3.63
2017-08-29T08:33:09.199Z,4.30
2017-08-29T08:35:37.517Z,4.10
2017-08-29T08:38:05.849Z,4.00
2017-08-29T08:40:34.361Z,3.77
2017-08-29T08:43:02.695Z,3.70
2017-08-29T08:45:31.027Z,4.20
2017-08-29T08:47:59.508Z,3.30
2017-08-29T08:50:27.825Z,4.23
2017-08-29T08:52:56.199Z,4.10
2017-08-29T08:55:25.294Z,3.67
2017-08-29T08:57:53.671Z,3.60
2017-08-29T09:00:23.589Z,3.77
2017-08-29T09:02:52.437Z,3.67
2017-08-29T09:05:21.675Z,3.93
2017-08-29T09:07:50.036Z,5.33
2017-08-29T09:10:18.616Z,3.90
2017-08-29T09:12:46.937Z,3.60
2017-08-29T09:15:16.221Z,3.83
2017-08-29T09:17:44.724Z,3.53
2017-08-29T09:20:13.038Z,4.40
2017-08-29T09:22:43.061Z,3.70
2017-08-29T09:25:12.297Z,4.43
2017-08-29T09:27:40.660Z,5.00
2017-08-29T09:30:08.966Z,3.97
2017-08-29T09:32:37.688Z,3.20
2017-08-29T09:35:06.008Z,3.73
2017-08-29T09:37:35.081Z,3.63
2017-08-29T09:40:04.354Z,4.73
2017-08-29T09:42:32.685Z,4.30
2017-08-29T09:45:01.037Z,4.00
2017-08-29T09:47:29.544Z,3.30
2017-08-29T09:49:57.912Z,4.00
2017-08-29T09:52:26.237Z,3.97
2017-08-29T09:54:54.774Z,4.07
2017-08-29T09:57:23.359Z,4.40
2017-08-29T09:59:51.735Z,4.13
2017-08-29T10:02:20.452Z,4.63
2017-08-29T10:04:48.770Z,4.80
2017-08-29T10:07:17.074Z,4.43
2017-08-29T10:09:46.505Z,4.50
2017-08-29T10:12:14.837Z,4.47
2017-08-29T10:14:43.141Z,4.10
2017-08-29T10:17:11.586Z,4.50
2017-08-29T10:19:39.916Z,3.60
2017-08-29T10:22:08.480Z,3.87
2017-08-29T10:24:38.111Z,4.00
2017-08-29T10:27:06.445Z,4.20
2017-08-29T10:29:34.763Z,4.20
2017-08-29T10:32:03.246Z,4.00
2017-08-29T10:34:31.673Z,3.90
2017-08-29T10:37:01.178Z,5.00
2017-08-29T10:39:29.780Z,4.20
2017-08-29T10:41:58.125Z,4.00
2017-08-29T10:44:26.445Z,4.33
2017-08-29T10:46:55.545Z,3.53
2017-08-29T10:49:23.981Z,3.83
2017-08-29T10:51:52.369Z,3.67
2017-08-29T10:54:22.802Z,4.70
2017-08-29T10:56:51.165Z,3.97
2017-08-29T10:59:19.481Z,4.37
2017-08-29T11:01:48.161Z,4.03
2017-08-29T11:04:16.524Z,4.30
2017-08-29T11:06:44.857Z,4.80
2017-08-29T11:09:13.349Z,4.30
2017-08-29T11:11:41.732Z,4.50
2017-08-29T11:14:10.705Z,4.77
2017-08-29T11:16:39.254Z,5.33
2017-08-29T11:19:07.585Z,5.30
2017-08-29T11:21:35.897Z,5.27
2017-08-29T11:24:04.450Z,5.83
2017-08-29T11:26:32.805Z,5.53
2017-08-29T11:29:01.181Z,4.37
2017-08-29T11:31:29.893Z,5.50
2017-08-29T11:33:58.217Z,7.60
2017-08-29T11:36:26.680Z,7.90
2017-08-29T11:38:55.376Z,7.67
2017-08-29T11:41:23.971Z,7.30
2017-08-29T11:43:52.437Z,7.17
2017-08-29T11:46:20.933Z,6.03
2017-08-29T11:48:49.332Z,8.90
2017-08-29T11:51:17.653Z,7.40
2017-08-29T11:53:46.194Z,8.43
2017-08-29T11:56:14.536Z,7.60
2017-08-29T11:58:42.885Z,10.53
2017-08-29T12:01:11.453Z,9.17
2017-08-29T12:03:39.779Z,7.10
2017-08-29T12:06:08.176Z,8.07
2017-08-29T12:08:36.537Z,10.80
2017-08-29T12:11:04.941Z,8.37
2017-08-29T12:13:33.264Z,9.90
2017-08-29T12:16:01.900Z,10.17
2017-08-29T12:18:30.284Z,8.20
2017-08-29T12:20:58.663Z,7.60
2017-08-29T12:23:28.088Z,11.33
2017-08-29T12:25:56.449Z,11.97
2017-08-29T12:28:25.329Z,9.97
2017-08-29T12:30:54.061Z,11.20
2017-08-29T12:33:22.409Z,10.40
2017-08-29T12:35:50.771Z,10.40
2017-08-29T12:38:19.341Z,10.20
2017-08-29T12:40:47.677Z,9.70
2017-08-29T12:43:15.987Z,9.90
2017-08-29T12:45:44.945Z,10.53
2017-08-29T12:48:13.285Z,10.47
2017-08-29T12:50:42.678Z,12.10
2017-08-29T12:53:11.267Z,10.80
2017-08-29T12:55:39.609Z,11.70
2017-08-29T12:58:07.957Z,10.97
2017-08-29T13:00:36.400Z,10.73
2017-08-29T13:03:04.716Z,13.30
2017-08-29T13:05:33.062Z,10.50
2017-08-29T13:08:01.648Z,9.37
2017-08-29T13:10:29.973Z,9.90
2017-08-29T13:12:58.450Z,9.50
2017-08-29T13:15:27.809Z,9.70
2017-08-29T13:17:58.705Z,9.30
2017-08-29T13:20:27.784Z,8.57
2017-08-29T13:22:56.566Z,8.50
2017-08-29T13:25:24.992Z,7.80
2017-08-29T13:27:53.538Z,8.30
2017-08-29T13:30:22.200Z,9.10
2017-08-29T13:32:50.554Z,10.20
2017-08-29T13:35:18.884Z,8.10
2017-08-29T13:37:47.480Z,7.83
2017-08-29T13:40:15.870Z,7.53
2017-08-29T13:42:44.179Z,8.37
2017-08-29T13:45:12.940Z,8.43
2017-08-29T13:47:41.262Z,8.50
2017-08-29T13:50:09.597Z,9.57
2017-08-29T13:52:38.124Z,10.77
2017-08-29T13:55:07.465Z,11.33
2017-08-29T13:57:35.773Z,9.80
2017-08-29T14:00:04.225Z,10.10
2017-08-29T14:02:32.590Z,11.37
2017-08-29T14:05:00.919Z,11.03
2017-08-29T14:07:29.417Z,11.23
2017-08-29T14:09:57.774Z,10.00
2017-08-29T14:12:26.342Z,10.63
2017-08-29T14:14:55.157Z,11.53
2017-08-29T14:17:23.533Z,10.93
2017-08-29T14:19:51.870Z,9.40
2017-08-29T14:22:20.656Z,10.67
2017-08-29T14:24:48.977Z,9.57
2017-08-29T14:27:17.309Z,11.10
2017-08-29T14:29:45.944Z,9.47
2017-08-29T14:32:14.659Z,9.50
2017-08-29T14:34:44.109Z,10.23
2017-08-29T14:37:12.742Z,8.50
2017-08-29T14:39:41.904Z,10.03
2017-08-29T14:42:11.250Z,12.10
2017-08-29T14:44:39.692Z,10.53
2017-08-29T14:50:16.364Z,11.93
2017-08-29T14:52:45.663Z,11.53
2017-08-29T14:55:13.979Z,12.47
2017-08-29T14:57:42.583Z,12.50
2017-08-29T15:00:10.930Z,13.30
2017-08-29T15:02:39.256Z,11.10
2017-08-29T15:05:07.878Z,12.60
2017-08-29T15:07:36.193Z,14.00
2017-08-29T15:10:04.552Z,14.57
2017-08-29T15:12:33.036Z,11.13
2017-08-29T15:15:01.548Z,10.80
2017-08-29T15:17:29.872Z,11.67
2017-08-29T15:19:58.450Z,13.50
2017-08-29T15:22:26.808Z,12.87
2017-08-29T15:24:55.147Z,14.17
2017-08-29T15:27:23.729Z,15.13
2017-08-29T15:29:52.185Z,13.57
2017-08-29T15:32:21.453Z,11.63
2017-08-29T15:34:50.682Z,12.30
2017-08-29T15:37:19.016Z,11.20
2017-08-29T15:39:47.367Z,9.37
2017-08-29T15:42:15.861Z,9.03
2017-08-29T15:44:44.198Z,9.17
2017-08-29T15:47:12.514Z,9.43
2017-08-29T15:49:41.175Z,7.50
2017-08-29T15:52:10.404Z,8.97
2017-08-29T15:54:38.735Z,9.83
2017-08-29T15:57:07.482Z,8.17
2017-08-29T15:59:35.798Z,9.27
2017-08-29T17:24:04.545Z,8.27
2017-08-29T17:26:34.303Z,8.00
2017-08-29T17:29:02.676Z,8.80
2017-08-29T17:31:32.248Z,8.50
2017-08-29T17:34:00.831Z,9.33
2017-08-29T17:36:30.052Z,8.20
2017-08-29T17:38:58.637Z,10.13
2017-08-29T17:41:28.451Z,9.40
2017-08-29T17:43:57.035Z,9.53
2017-08-29T17:46:25.598Z,18.87
2017-08-29T17:48:54.017Z,9.17
2017-08-29T17:51:23.638Z,9.77
2017-08-29T17:53:52.744Z,9.10
2017-08-29T17:56:21.144Z,8.57
2017-08-29T17:58:49.515Z,9.90
2017-08-29T18:01:18.093Z,11.77
2017-08-29T18:03:46.524Z,11.60
2017-08-29T18:06:14.920Z,11.60
2017-08-29T18:08:43.875Z,10.77
2017-08-29T18:11:12.226Z,12.77
2017-08-29T18:13:40.630Z,13.03
2017-08-29T18:16:10.352Z,11.60
2017-08-29T18:18:39.102Z,11.20
2017-08-29T18:21:07.543Z,12.10
2017-08-29T18:23:36.234Z,12.50
2017-08-29T18:26:04.681Z,13.60
2017-08-29T18:28:35.696Z,13.80
2017-08-29T18:31:04.431Z,21.57
2017-08-29T18:33:32.782Z,20.43
2017-08-29T18:36:01.181Z,20.43
2017-08-29T18:38:30.738Z,21.40
2017-08-29T18:40:59.256Z,21.23
2017-08-29T18:43:28.047Z,21.70
2017-08-29T18:45:56.816Z,27.20
2017-08-29T18:48:25.312Z,28.53
2017-08-29T18:50:53.805Z,29.90
2017-08-29T18:53:23.108Z,31.30
2017-08-29T18:55:51.540Z,29.27
2017-08-29T18:58:20.073Z,34.00
2017-08-29T19:00:48.858Z,35.33
2017-08-29T19:03:17.189Z,32.47
2017-08-29T19:05:45.563Z,34.77
2017-08-29T19:08:14.237Z,34.87
2017-08-29T19:10:42.581Z,33.87
2017-08-29T19:13:10.967Z,35.90
2017-08-29T19:15:39.433Z,35.80
2017-08-29T19:18:07.776Z,32.97
2017-08-29T19:20:36.146Z,36.83
2017-08-29T19:23:04.519Z,35.40
2017-08-29T19:25:33.377Z,36.50
2017-08-29T19:28:01.880Z,36.00
2017-08-29T19:30:31.463Z,37.03
2017-08-29T19:32:59.833Z,36.50
2017-08-29T19:35:28.350Z,38.77
2017-08-29T19:37:57.793Z,35.67
2017-08-29T19:40:26.219Z,35.93
2017-08-29T19:42:54.711Z,38.00
2017-08-29T19:45:23.432Z,38.70
2017-08-29T19:47:51.789Z,39.83
2017-08-29T19:50:20.168Z,39.50
2017-08-29T19:52:49.589Z,38.17
2017-08-29T19:55:17.953Z,41.30
2017-08-29T19:57:46.277Z,36.63
2017-08-29T20:00:14.817Z,38.60
2017-08-29T20:02:43.143Z,40.27
2017-08-29T20:05:11.478Z,39.43
2017-08-29T20:07:40.943Z,37.80
2017-08-29T20:10:09.294Z,40.30
2017-08-29T20:12:37.670Z,37.23
2017-08-29T20:15:06.307Z,35.63
2017-08-29T20:17:34.663Z,37.30
2017-08-29T20:20:03.082Z,38.60
2017-08-29T20:22:31.647Z,37.60
2017-08-29T20:25:00.115Z,39.13
2017-08-29T20:27:28.585Z,36.37
2017-08-29T20:29:57.423Z,38.07
2017-08-29T20:32:26.620Z,36.87
2017-08-29T20:34:55.308Z,37.20
2017-08-29T20:37:24.025Z,37.77
2017-08-29T20:39:52.875Z,37.00
2017-08-29T20:42:21.320Z,35.23
2017-08-29T20:44:50.521Z,35.90
2017-08-29T20:47:18.903Z,34.60
2017-08-29T20:49:47.344Z,32.77
2017-08-29T20:52:16.613Z,34.50
2017-08-29T20:54:44.982Z,33.20
2017-08-29T20:57:13.420Z,33.80
2017-08-29T20:59:42.707Z,35.57
2017-08-29T21:02:12.020Z,33.33
2017-08-29T21:04:40.336Z,34.10
2017-08-29T21:07:10.078Z,32.43
2017-08-29T21:09:38.430Z,34.30
2017-08-29T21:12:06.752Z,33.20
2017-08-29T21:14:35.414Z,33.17
2017-08-29T21:17:03.742Z,32.63
2017-08-29T21:19:33.060Z,32.23
2017-08-29T21:22:01.750Z,32.20
2017-08-29T21:24:30.184Z,36.40
2017-08-29T21:26:58.628Z,36.10
2017-08-29T21:29:27.364Z,38.30
2017-08-29T21:31:56.790Z,42.13
2017-08-29T21:34:25.298Z,40.90
2017-08-29T21:36:54.171Z,42.47
2017-08-29T21:39:22.723Z,43.20
2017-08-29T21:41:51.161Z,42.57
2017-08-29T21:44:19.642Z,45.40
2017-08-29T21:46:48.021Z,43.70
2017-08-29T21:49:16.379Z,46.50
2017-08-29T21:51:45.257Z,46.77
2017-08-29T21:54:13.574Z,43.40
2017-08-29T21:56:41.917Z,47.83
2017-08-29T21:59:10.781Z,42.73
2017-08-29T22:01:39.182Z,44.90
2017-08-29T22:04:07.580Z,46.90
2017-08-29T22:06:36.300Z,47.03
2017-08-29T22:09:04.730Z,44.67
2017-08-29T22:11:33.076Z,45.90
2017-08-29T22:14:01.661Z,47.10
2017-08-29T22:16:30.101Z,45.70
2017-08-29T22:18:59.240Z,48.10
2017-08-29T22:21:28.688Z,47.03
2017-08-29T22:23:57.156Z,46.43
2017-08-29T22:26:25.566Z,47.27
2017-08-29T22:28:54.114Z,46.73
2017-08-29T22:31:22.763Z,47.20
2017-08-29T22:33:51.296Z,46.30
2017-08-29T22:36:19.802Z,46.27
2017-08-29T22:38:48.129Z,50.87
2017-08-29T22:41:16.505Z,49.67
2017-08-29T22:43:45.225Z,49.60
2017-08-29T22:46:13.677Z,49.27
2017-08-29T22:48:42.035Z,49.23
2017-08-29T22:51:10.895Z,50.90
2017-08-29T22:53:39.286Z,50.67
2017-08-29T22:56:08.203Z,53.97
2017-08-29T22:58:36.676Z,52.27
2017-08-29T23:01:05.372Z,51.10
2017-08-29T23:03:33.728Z,54.00
2017-08-29T23:06:02.533Z,59.93
2017-08-29T23:08:30.913Z,55.27
2017-08-29T23:10:59.253Z,59.10
2017-08-29T23:13:29.223Z,67.93
2017-08-29T23:15:57.731Z,64.57
2017-08-29T23:18:26.198Z,67.47
2017-08-29T23:20:54.929Z,69.60
2017-08-29T23:23:23.313Z,70.53
2017-08-29T23:25:52.642Z,68.10
2017-08-29T23:28:22.907Z,71.83
2017-08-29T23:30:51.290Z,67.63
2017-08-29T23:33:19.689Z,66.90
2017-08-29T23:35:48.385Z,67.50
2017-08-29T23:38:16.721Z,68.00
2017-08-29T23:40:45.800Z,66.90
2017-08-29T23:43:14.501Z,67.77
2017-08-29T23:45:42.857Z,66.93
2017-08-29T23:48:11.223Z,64.97
2017-08-29T23:50:39.602Z,66.03
2017-08-29T23:53:07.972Z,68.43
2017-08-29T23:55:36.297Z,67.47
2017-08-29T23:58:04.990Z,66.47
